createdAt,value
2019-02-08T00:00:22.959Z,5.39
2019-02-08T00:01:33.093Z,5.39
2019-02-08T00:02:43.001Z,5.46
2019-02-08T00:03:53.126Z,5.42
2019-02-08T00:05:02.989Z,5.27
2019-02-08T00:06:13.155Z,5.41
2019-02-08T00:07:23.287Z,5.3
2019-02-08T00:08:32.913Z,5.34
2019-02-08T00:09:42.738Z,5.39
2019-02-08T00:10:52.358Z,5.44
2019-02-08T00:12:02.501Z,5.36
2019-02-08T00:13:12.641Z,5.28
2019-02-08T00:14:22.794Z,5.26
2019-02-08T00:15:32.940Z,5.36
2019-02-08T00:16:42.778Z,5.26
2019-02-08T00:17:52.911Z,5.3
2019-02-08T00:19:02.795Z,5.28
2019-02-08T00:20:12.637Z,5.26
2019-02-08T00:21:22.833Z,5.26
2019-02-08T00:22:32.961Z,5.3
2019-02-08T00:23:42.843Z,5.39
2019-02-08T00:24:52.930Z,5.31
2019-02-08T00:26:03.087Z,5.3
2019-02-08T00:27:13.179Z,5.23
2019-02-08T00:28:23.271Z,5.24
2019-02-08T00:29:33.116Z,5.23
2019-02-08T00:30:43.271Z,5.26
2019-02-08T00:31:53.433Z,5.31
2019-02-08T00:33:03.515Z,5.15
2019-02-08T00:34:13.336Z,5.27
2019-02-08T00:35:23.423Z,5.27
2019-02-08T00:36:33.274Z,5.28
2019-02-08T00:37:43.423Z,5.21
2019-02-08T00:38:52.988Z,5.3
2019-02-08T00:40:03.746Z,5.36
2019-02-08T00:41:13.832Z,5.34
2019-02-08T00:42:23.882Z,5.41
2019-02-08T00:43:33.952Z,5.41
2019-02-08T00:44:43.781Z,5.42
2019-02-08T00:45:53.104Z,5.41
2019-02-08T00:47:03.185Z,5.37
2019-02-08T00:48:13.257Z,5.41
2019-02-08T00:49:23.338Z,5.46
2019-02-08T00:50:33.430Z,5.37
2019-02-08T00:51:43.523Z,5.45
2019-02-08T00:52:53.633Z,5.42
2019-02-08T00:54:03.446Z,5.44
2019-02-08T00:55:13.497Z,5.44
2019-02-08T00:56:23.579Z,5.41
2019-02-08T00:57:33.657Z,5.39
2019-02-08T00:58:43.752Z,5.41
2019-02-08T00:59:53.619Z,5.34
2019-02-08T01:01:03.743Z,5.28
2019-02-08T01:02:13.867Z,5.36
2019-02-08T01:03:23.447Z,5.39
2019-02-08T01:04:33.512Z,5.37
2019-02-08T01:05:43.330Z,5.39
2019-02-08T01:06:53.408Z,5.39
2019-02-08T01:08:03.490Z,5.39
2019-02-08T01:09:13.578Z,5.36
2019-02-08T01:10:24.035Z,5.48
2019-02-08T01:11:34.467Z,5.39
2019-02-08T01:12:44.565Z,5.39
2019-02-08T01:13:54.999Z,5.41
2019-02-08T01:15:05.799Z,5.44
2019-02-08T01:16:16.966Z,5.39
2019-02-08T01:17:27.986Z,5.48
2019-02-08T01:18:38.869Z,5.45
2019-02-08T01:19:49.486Z,5.45
2019-02-08T01:20:59.790Z,5.49
2019-02-08T01:22:10.157Z,5.46
2019-02-08T01:23:20.163Z,5.48
2019-02-08T01:24:30.222Z,5.39
2019-02-08T01:25:40.273Z,5.42
2019-02-08T01:26:50.314Z,5.45
2019-02-08T01:28:00.390Z,5.45
2019-02-08T01:29:10.441Z,5.39
2019-02-08T01:30:20.548Z,5.36
2019-02-08T01:31:30.593Z,5.41
2019-02-08T01:32:40.648Z,5.34
2019-02-08T01:33:50.709Z,5.34
2019-02-08T01:35:01.003Z,5.34
2019-02-08T01:36:10.887Z,5.36
2019-02-08T01:37:20.930Z,5.41
2019-02-08T01:38:30.974Z,5.44
2019-02-08T01:39:41.033Z,5.34
2019-02-08T01:40:51.068Z,5.39
2019-02-08T01:42:00.651Z,5.42
2019-02-08T01:43:10.688Z,5.37
2019-02-08T01:44:20.738Z,5.45
2019-02-08T01:45:30.801Z,5.24
2019-02-08T01:46:41.023Z,5.42
2019-02-08T01:47:50.845Z,5.34
2019-02-08T01:49:00.881Z,5.41
2019-02-08T01:50:10.677Z,5.26
2019-02-08T01:51:20.729Z,5.28
2019-02-08T01:52:30.527Z,5.24
2019-02-08T01:53:40.323Z,5.23
2019-02-08T01:54:56.495Z,5.21
2019-02-08T01:56:06.292Z,5.24
2019-02-08T01:57:16.380Z,5.2
2019-02-08T01:58:26.430Z,5.3
2019-02-08T01:59:36.499Z,5.26
2019-02-08T02:00:45.792Z,5.2
2019-02-08T02:01:55.605Z,5.31
2019-02-08T02:03:06.156Z,5.34
2019-02-08T02:04:16.217Z,5.36
2019-02-08T02:05:26.282Z,5.37
2019-02-08T02:06:36.343Z,5.37
2019-02-08T02:07:46.443Z,5.34
2019-02-08T02:08:56.236Z,5.42
2019-02-08T02:10:07.284Z,5.44
2019-02-08T02:11:17.324Z,5.46
2019-02-08T02:12:27.385Z,5.49
2019-02-08T02:13:36.930Z,5.52
2019-02-08T02:14:46.978Z,5.62
2019-02-08T02:15:57.021Z,5.55
2019-02-08T02:17:07.171Z,5.63
2019-02-08T02:18:17.014Z,5.57
2019-02-08T02:19:27.060Z,5.59
2019-02-08T02:20:36.603Z,5.66
2019-02-08T02:21:46.685Z,5.66
2019-02-08T02:22:56.752Z,5.64
2019-02-08T02:24:06.830Z,5.78
2019-02-08T02:25:16.868Z,5.75
2019-02-08T02:26:26.455Z,5.66
2019-02-08T02:27:36.272Z,5.62
2019-02-08T02:28:46.395Z,5.77
2019-02-08T02:29:56.437Z,5.67
2019-02-08T02:31:06.250Z,5.63
2019-02-08T02:32:16.326Z,5.72
2019-02-08T02:33:26.137Z,5.63
2019-02-08T02:34:36.206Z,5.69
2019-02-08T02:35:46.001Z,5.67
2019-02-08T02:36:56.073Z,5.57
2019-02-08T02:38:06.539Z,5.63
2019-02-08T02:39:16.588Z,5.62
2019-02-08T02:40:26.406Z,5.63
2019-02-08T02:41:36.462Z,5.64
2019-02-08T02:42:46.266Z,5.59
2019-02-08T02:43:55.810Z,5.62
2019-02-08T02:45:05.889Z,5.59
2019-02-08T02:46:15.967Z,5.59
2019-02-08T02:47:25.778Z,5.67
2019-02-08T02:48:35.847Z,5.69
2019-02-08T02:49:45.644Z,5.6
2019-02-08T02:50:55.196Z,5.59
2019-02-08T02:52:05.259Z,5.57
2019-02-08T02:53:15.320Z,5.67
2019-02-08T02:54:25.137Z,5.67
2019-02-08T02:55:35.184Z,5.7
2019-02-08T02:56:45.002Z,5.64
2019-02-08T02:57:55.044Z,5.75
2019-02-08T02:59:05.102Z,5.64
2019-02-08T03:00:15.772Z,5.75
2019-02-08T03:01:25.762Z,5.7
2019-02-08T03:02:35.804Z,5.72
2019-02-08T03:34:29.221Z,3.35
2019-02-08T03:35:39.284Z,3.24
2019-02-08T03:36:49.071Z,3.26
2019-02-08T03:38:01.291Z,3.24
2019-02-08T03:39:10.837Z,3.42
2019-02-08T03:40:20.920Z,3.29
2019-02-08T03:41:30.965Z,3.34
2019-02-08T03:42:40.782Z,3.53
2019-02-08T03:43:50.849Z,3.53
2019-02-08T03:45:00.914Z,3.72
2019-02-08T03:46:10.767Z,3.78
2019-02-08T03:47:20.918Z,3.85
2019-02-08T03:48:30.474Z,4.03
2019-02-08T03:49:40.532Z,4.15
2019-02-08T03:50:50.051Z,4.29
2019-02-08T03:51:59.864Z,4.33
2019-02-08T03:53:09.658Z,4.46
2019-02-08T03:54:25.972Z,4.48
2019-02-08T03:55:36.115Z,4.74
2019-02-08T03:56:46.201Z,4.75
2019-02-08T03:57:56.003Z,4.85
2019-02-08T03:59:06.077Z,5
2019-02-08T04:00:16.434Z,5.02
2019-02-08T04:01:26.665Z,5.06
2019-02-08T04:02:36.771Z,5.18
2019-02-08T04:03:46.818Z,5.18
2019-02-08T04:04:56.666Z,5.24
2019-02-08T04:06:06.761Z,5.18
2019-02-08T04:07:16.809Z,5.21
2019-02-08T04:08:26.857Z,5.13
2019-02-08T04:09:36.982Z,5.15
2019-02-08T04:10:46.798Z,5.18
2019-02-08T04:11:56.851Z,5.1
2019-02-08T04:13:06.882Z,5.12
2019-02-08T04:14:16.669Z,5.02
2019-02-08T04:15:26.795Z,5.09
2019-02-08T04:16:36.833Z,5.16
2019-02-08T04:17:46.637Z,5.06
2019-02-08T04:18:56.488Z,5.06
2019-02-08T04:20:06.317Z,5.23
2019-02-08T04:21:16.158Z,5.13
2019-02-08T04:22:25.416Z,5.12
2019-02-08T04:23:35.197Z,5.16
2019-02-08T04:24:45.019Z,5.15
2019-02-08T04:25:55.077Z,5.08
2019-02-08T04:27:05.013Z,5.27
2019-02-08T04:28:14.825Z,5.26
2019-02-08T04:29:24.402Z,5.3
2019-02-08T04:30:34.242Z,5.36
2019-02-08T04:31:44.977Z,5.36
2019-02-08T04:32:55.091Z,5.37
2019-02-08T04:34:05.160Z,5.37
2019-02-08T04:35:14.802Z,5.37
2019-02-08T04:36:24.874Z,5.39
2019-02-08T04:37:34.665Z,5.39
2019-02-08T04:38:44.721Z,5.39
2019-02-08T04:39:54.756Z,5.37
2019-02-08T04:41:04.293Z,5.41
2019-02-08T04:42:14.108Z,5.42
2019-02-08T04:43:23.907Z,5.31
2019-02-08T04:44:33.986Z,5.39
2019-02-08T04:45:44.096Z,5.41
2019-02-08T04:46:54.142Z,5.31
2019-02-08T04:48:04.233Z,5.27
2019-02-08T04:49:14.281Z,5.31
2019-02-08T04:50:24.342Z,5.37
2019-02-08T04:51:34.384Z,5.42
2019-02-08T04:52:44.238Z,5.39
2019-02-08T04:53:54.281Z,5.42
2019-02-08T04:55:04.082Z,5.52
2019-02-08T04:56:13.871Z,5.46
2019-02-08T04:57:23.908Z,5.44
2019-02-08T04:58:40.507Z,5.51
2019-02-08T04:59:50.566Z,5.52
2019-02-08T05:01:00.649Z,5.46
2019-02-08T05:02:10.446Z,5.57
2019-02-08T05:03:20.497Z,5.59
2019-02-08T05:04:30.566Z,5.63
2019-02-08T05:05:40.360Z,5.59
2019-02-08T05:06:50.152Z,5.64
2019-02-08T05:08:00.262Z,5.75
2019-02-08T05:09:09.791Z,5.75
2019-02-08T05:10:19.846Z,5.77
2019-02-08T05:11:29.907Z,5.82
2019-02-08T05:12:39.954Z,5.87
2019-02-08T05:13:50.001Z,5.96
2019-02-08T05:14:59.829Z,5.82
2019-02-08T05:16:09.890Z,5.87
2019-02-08T05:17:19.943Z,5.84
2019-02-08T05:18:30.000Z,5.91
2019-02-08T05:19:40.045Z,5.92
2019-02-08T05:20:50.096Z,5.88
2019-02-08T05:22:00.142Z,5.88
2019-02-08T05:23:10.200Z,5.92
2019-02-08T05:24:20.261Z,5.88
2019-02-08T05:25:30.313Z,5.85
2019-02-08T05:26:40.399Z,5.95
2019-02-08T05:27:52.455Z,5.89
2019-02-08T05:29:02.479Z,5.81
2019-02-08T05:30:12.555Z,5.78
2019-02-08T05:31:22.351Z,5.84
2019-02-08T05:32:32.410Z,5.92
2019-02-08T05:33:42.487Z,5.8
2019-02-08T05:34:52.535Z,5.87
2019-02-08T05:36:05.146Z,5.87
2019-02-08T05:37:15.245Z,5.87
2019-02-08T05:38:25.040Z,5.88
2019-02-08T05:39:35.069Z,5.96
2019-02-08T05:41:05.693Z,5.87
2019-02-08T05:42:15.760Z,5.92
2019-02-08T05:43:25.809Z,5.85
2019-02-08T05:44:35.870Z,5.88
2019-02-08T05:45:45.919Z,5.85
2019-02-08T05:46:55.975Z,5.95
2019-02-08T05:48:06.040Z,5.87
2019-02-08T05:49:16.087Z,5.84
2019-02-08T05:50:25.676Z,5.81
2019-02-08T05:51:35.739Z,5.85
2019-02-08T05:52:45.563Z,5.82
2019-02-08T05:53:55.367Z,5.88
2019-02-08T05:55:05.442Z,5.84
2019-02-08T05:56:15.243Z,5.85
2019-02-08T05:57:25.295Z,5.87
2019-02-08T05:58:36.798Z,5.84
2019-02-08T05:59:46.839Z,5.87
2019-02-08T06:00:56.894Z,5.85
2019-02-08T06:02:06.838Z,5.85
2019-02-08T06:03:16.644Z,5.88
2019-02-08T06:04:26.702Z,5.91
2019-02-08T06:05:36.769Z,5.91
2019-02-08T06:06:46.854Z,5.98
2019-02-08T06:07:56.646Z,5.98
2019-02-08T06:09:06.442Z,5.91
2019-02-08T06:10:16.263Z,6.07
2019-02-08T06:11:26.371Z,6
2019-02-08T06:12:38.342Z,6.06
2019-02-08T06:13:48.396Z,6.09
2019-02-08T06:14:58.209Z,6.09
2019-02-08T06:16:08.035Z,6.15
2019-02-08T06:17:18.099Z,6.1
2019-02-08T06:18:27.931Z,6.15
2019-02-08T06:19:37.987Z,6.2
2019-02-08T06:20:48.046Z,6.15
2019-02-08T06:21:58.180Z,6.15
2019-02-08T06:23:08.261Z,6.09
2019-02-08T06:24:18.085Z,6.07
2019-02-08T06:25:28.191Z,6.15
2019-02-08T06:26:38.269Z,6.15
2019-02-08T06:27:48.327Z,6.2
2019-02-08T06:28:58.426Z,6.26
2019-02-08T06:30:09.571Z,6.26
2019-02-08T06:31:19.673Z,6.26
2019-02-08T06:32:29.705Z,6.28
2019-02-08T06:33:39.740Z,6.36
2019-02-08T06:34:49.550Z,6.33
2019-02-08T06:35:59.334Z,6.34
2019-02-08T06:37:09.139Z,6.29
2019-02-08T06:38:19.185Z,6.49
2019-02-08T06:39:29.222Z,6.49
2019-02-08T06:40:39.277Z,6.42
2019-02-08T06:41:49.367Z,6.33
2019-02-08T06:42:59.450Z,6.46
2019-02-08T06:44:09.009Z,6.33
2019-02-08T06:45:18.804Z,6.44
2019-02-08T06:46:28.614Z,6.46
2019-02-08T06:47:38.427Z,6.54
2019-02-08T06:48:48.467Z,6.52
2019-02-08T06:49:58.262Z,6.51
2019-02-08T06:51:09.067Z,6.57
2019-02-08T06:52:19.125Z,6.61
2019-02-08T06:53:29.177Z,6.57
2019-02-08T06:54:39.269Z,6.67
2019-02-08T06:55:53.752Z,6.73
2019-02-08T06:57:03.979Z,6.64
2019-02-08T06:58:14.788Z,6.7
2019-02-08T06:59:24.645Z,6.64
2019-02-08T07:00:34.695Z,6.78
2019-02-08T07:01:44.754Z,6.85
2019-02-08T07:02:54.596Z,6.82
2019-02-08T07:04:04.462Z,6.94
2019-02-08T07:05:14.529Z,6.85
2019-02-08T07:06:24.087Z,7
2019-02-08T07:07:34.188Z,6.98
2019-02-08T07:08:44.239Z,7.03
2019-02-08T07:09:54.038Z,6.97
2019-02-08T07:11:04.843Z,7.04
2019-02-08T07:12:14.624Z,7.05
2019-02-08T07:13:24.671Z,7.11
2019-02-08T07:14:34.479Z,7.11
2019-02-08T07:15:43.859Z,7.16
2019-02-08T07:16:53.904Z,7.19
2019-02-08T07:18:03.978Z,7.15
2019-02-08T07:19:14.018Z,7.21
2019-02-08T07:20:23.583Z,7.22
2019-02-08T07:21:33.626Z,7.29
2019-02-08T07:22:43.682Z,7.18
2019-02-08T07:23:53.725Z,7.23
2019-02-08T07:25:03.534Z,7.39
2019-02-08T07:26:13.055Z,7.47
2019-02-08T07:27:22.866Z,7.47
2019-02-08T07:28:32.928Z,7.51
2019-02-08T07:29:42.986Z,7.47
2019-02-08T07:30:53.020Z,7.59
2019-02-08T07:32:03.694Z,7.48
2019-02-08T07:33:13.731Z,7.55
2019-02-08T07:34:23.847Z,7.64
2019-02-08T07:35:33.932Z,7.64
2019-02-08T07:36:43.735Z,7.7
2019-02-08T07:37:53.794Z,7.73
2019-02-08T07:39:05.500Z,7.75
2019-02-08T07:40:15.305Z,7.89
2019-02-08T07:41:25.333Z,7.93
2019-02-08T07:42:35.405Z,7.93
2019-02-08T07:43:45.456Z,8.04
2019-02-08T07:44:55.503Z,8.07
2019-02-08T07:46:05.301Z,8.21
2019-02-08T07:47:15.367Z,8.16
2019-02-08T07:48:25.180Z,8.22
2019-02-08T07:49:34.968Z,8.26
2019-02-08T07:50:45.019Z,8.39
2019-02-08T07:51:55.079Z,8.4
2019-02-08T07:53:05.121Z,8.42
2019-02-08T07:54:15.272Z,8.44
2019-02-08T07:55:30.958Z,8.49
2019-02-08T07:56:41.016Z,8.46
2019-02-08T07:57:50.812Z,8.54
2019-02-08T07:59:00.869Z,8.6
2019-02-08T08:00:11.340Z,8.71
2019-02-08T08:01:21.546Z,8.68
2019-02-08T08:02:31.084Z,8.72
2019-02-08T08:03:41.158Z,8.71
2019-02-08T08:04:51.217Z,8.71
2019-02-08T08:06:01.062Z,8.72
2019-02-08T08:07:11.139Z,8.6
2019-02-08T08:08:21.199Z,8.57
2019-02-08T08:09:30.979Z,8.6
2019-02-08T08:10:40.521Z,8.57
2019-02-08T08:11:50.580Z,8.58
2019-02-08T08:13:00.384Z,8.54
2019-02-08T08:14:09.943Z,8.58
2019-02-08T08:15:20.001Z,8.62
2019-02-08T08:16:29.826Z,8.69
2019-02-08T08:17:39.892Z,8.72
2019-02-08T08:18:49.953Z,8.82
2019-02-08T08:19:59.991Z,8.77
2019-02-08T08:21:10.055Z,8.79
2019-02-08T08:22:20.151Z,8.82
2019-02-08T08:23:29.983Z,8.94
2019-02-08T08:24:40.063Z,8.97
2019-02-08T08:25:49.850Z,8.98
2019-02-08T08:26:59.640Z,9.16
2019-02-08T08:28:09.441Z,9.19
2019-02-08T08:29:19.558Z,9.23
2019-02-08T08:30:29.649Z,9.32
2019-02-08T08:31:39.721Z,9.42
2019-02-08T08:32:48.792Z,9.41
2019-02-08T08:33:58.850Z,9.5
2019-02-08T08:35:10.115Z,9.64
2019-02-08T08:36:20.175Z,9.59
2019-02-08T08:37:30.254Z,9.7
2019-02-08T08:38:40.062Z,9.74
2019-02-08T08:39:50.190Z,9.75
2019-02-08T08:41:00.304Z,9.84
2019-02-08T08:42:10.105Z,9.84
2019-02-08T08:43:20.168Z,10.02
2019-02-08T08:44:30.217Z,10.03
2019-02-08T08:45:40.290Z,10.13
2019-02-08T08:46:50.499Z,10.14
2019-02-08T08:48:00.941Z,10.21
2019-02-08T08:49:10.778Z,10.26
2019-02-08T08:50:20.335Z,10.38
2019-02-08T08:51:30.402Z,10.44
2019-02-08T08:52:40.203Z,10.63
2019-02-08T08:53:50.259Z,10.65
2019-02-08T08:55:00.053Z,10.76
2019-02-08T08:56:10.114Z,10.83
2019-02-08T08:57:20.169Z,11
2019-02-08T08:58:30.235Z,10.97
2019-02-08T08:59:40.293Z,11.06
2019-02-08T09:00:50.085Z,11.02
2019-02-08T09:02:00.178Z,11.09
2019-02-08T09:03:10.003Z,11.03
2019-02-08T09:04:19.817Z,11.12
2019-02-08T09:05:29.909Z,11.06
2019-02-08T09:06:39.988Z,11.06
2019-02-08T09:07:50.040Z,11.03
2019-02-08T09:08:59.846Z,11.16
2019-02-08T09:10:09.643Z,11.2
2019-02-08T09:11:20.671Z,11.21
2019-02-08T09:12:30.471Z,11.27
2019-02-08T09:13:40.527Z,11.18
2019-02-08T09:14:50.581Z,11.13
2019-02-08T09:16:00.630Z,11.05
2019-02-08T09:17:10.432Z,11.13
2019-02-08T09:18:20.226Z,11.2
2019-02-08T09:19:30.288Z,11.28
2019-02-08T09:20:41.515Z,11.18
2019-02-08T09:21:51.571Z,11.23
2019-02-08T09:23:01.371Z,11.21
2019-02-08T09:24:11.439Z,11.24
2019-02-08T09:25:21.497Z,11.15
2019-02-08T09:26:31.557Z,10.88
2019-02-08T09:27:40.615Z,10.8
2019-02-08T09:28:50.666Z,10.77
2019-02-08T09:30:00.706Z,10.63
2019-02-08T09:31:10.499Z,10.52
2019-02-08T09:32:20.773Z,10.36
2019-02-08T09:33:30.826Z,10.33
2019-02-08T09:34:40.876Z,10.23
2019-02-08T09:35:50.681Z,10.32
2019-02-08T09:37:01.223Z,10.29
2019-02-08T09:38:11.274Z,10.29
2019-02-08T09:39:20.811Z,10.23
2019-02-08T09:40:30.622Z,10.49
2019-02-08T09:41:40.435Z,10.7
2019-02-08T09:42:50.514Z,10.92
2019-02-08T09:44:00.559Z,10.98
2019-02-08T09:45:10.682Z,11.16
2019-02-08T09:46:22.194Z,11.23
2019-02-08T09:47:32.270Z,11.35
2019-02-08T09:48:42.330Z,11.46
2019-02-08T09:49:52.381Z,11.52
2019-02-08T09:51:02.174Z,11.67
2019-02-08T09:52:12.243Z,11.79
2019-02-08T09:53:22.302Z,11.78
2019-02-08T09:54:32.123Z,11.85
2019-02-08T09:55:42.189Z,12
2019-02-08T09:56:52.305Z,12.15
2019-02-08T09:58:02.359Z,12.2
2019-02-08T09:59:12.409Z,12.34
2019-02-08T10:00:22.931Z,12.4
2019-02-08T10:01:33.006Z,12.48
2019-02-08T10:02:44.609Z,12.58
2019-02-08T10:03:54.398Z,12.59
2019-02-08T10:05:04.212Z,12.65
2019-02-08T10:06:14.295Z,12.61
2019-02-08T10:07:24.387Z,12.7
2019-02-08T10:08:34.204Z,12.74
2019-02-08T10:09:43.738Z,12.76
2019-02-08T10:10:53.803Z,12.8
2019-02-08T10:12:03.914Z,12.84
2019-02-08T10:13:13.991Z,12.8
2019-02-08T10:14:23.834Z,12.92
2019-02-08T10:15:33.897Z,12.8
2019-02-08T10:16:43.709Z,12.62
2019-02-08T10:17:53.775Z,12.58
2019-02-08T10:19:03.860Z,12.66
2019-02-08T10:20:13.712Z,12.8
2019-02-08T10:21:23.777Z,12.81
2019-02-08T10:22:33.592Z,12.69
2019-02-08T10:23:43.679Z,12.78
2019-02-08T10:24:53.748Z,12.8
2019-02-08T10:26:10.262Z,12.84
2019-02-08T10:27:20.341Z,12.92
2019-02-08T10:28:30.135Z,13.01
2019-02-08T10:29:39.943Z,13.1
2019-02-08T10:30:50.042Z,13.2
2019-02-08T10:31:59.848Z,13.25
2019-02-08T10:33:09.658Z,13.36
2019-02-08T10:34:19.719Z,13.42
2019-02-08T10:35:29.768Z,13.36
2019-02-08T10:36:39.835Z,13.51
2019-02-08T10:37:49.944Z,13.53
2019-02-08T10:39:00.015Z,13.48
2019-02-08T10:40:10.076Z,13.5
2019-02-08T10:41:19.893Z,13.51
2019-02-08T10:42:35.623Z,13.58
2019-02-08T10:43:45.703Z,13.6
2019-02-08T10:44:55.775Z,13.68
2019-02-08T10:46:05.599Z,13.65
2019-02-08T10:47:15.702Z,13.7
2019-02-08T10:48:25.572Z,13.83
2019-02-08T10:49:35.674Z,13.97
2019-02-08T10:50:45.721Z,13.91
2019-02-08T10:51:55.523Z,13.99
2019-02-08T10:53:05.575Z,14.05
2019-02-08T10:54:15.631Z,14.08
2019-02-08T10:55:25.694Z,14.06
2019-02-08T10:56:35.775Z,14.08
2019-02-08T10:57:45.831Z,14.09
2019-02-08T10:58:55.656Z,14.12
2019-02-08T11:00:06.350Z,14.24
2019-02-08T11:01:16.847Z,14.31
2019-02-08T11:02:26.922Z,14.42
2019-02-08T11:03:36.714Z,14.42
2019-02-08T11:04:46.757Z,14.45
2019-02-08T11:05:56.565Z,14.45
2019-02-08T11:07:06.382Z,14.49
2019-02-08T11:08:16.215Z,14.6
2019-02-08T11:09:26.313Z,14.61
2019-02-08T11:10:36.373Z,14.63
2019-02-08T11:11:46.190Z,14.36
2019-02-08T11:12:56.302Z,14.19
2019-02-08T11:14:07.365Z,14.34
2019-02-08T11:15:17.465Z,14.45
2019-02-08T11:16:27.528Z,14.46
2019-02-08T11:17:37.605Z,14.51
2019-02-08T11:18:47.664Z,14.64
2019-02-08T11:19:57.731Z,14.49
2019-02-08T11:21:07.867Z,14.57
2019-02-08T11:22:17.912Z,14.7
2019-02-08T11:23:27.978Z,14.63
2019-02-08T11:24:38.036Z,14.71
2019-02-08T11:25:48.099Z,14.71
2019-02-08T11:26:58.158Z,14.77
2019-02-08T11:28:07.968Z,14.77
2019-02-08T11:29:18.038Z,14.93
2019-02-08T11:30:28.162Z,14.89
2019-02-08T11:31:38.207Z,14.95
2019-02-08T11:32:48.585Z,14.97
2019-02-08T11:33:58.680Z,14.87
2019-02-08T11:35:08.764Z,14.9
2019-02-08T11:36:18.583Z,14.94
2019-02-08T11:37:28.668Z,15.04
2019-02-08T11:38:38.728Z,15.07
2019-02-08T11:39:48.797Z,15.13
2019-02-08T11:40:58.629Z,15.27
2019-02-08T11:42:08.230Z,15.25
2019-02-08T11:43:18.053Z,15.3
2019-02-08T11:44:27.899Z,15.37
2019-02-08T11:45:37.971Z,15.43
2019-02-08T11:46:48.051Z,15.43
2019-02-08T11:47:58.161Z,15.44
2019-02-08T11:49:08.000Z,15.47
2019-02-08T11:50:17.800Z,15.44
2019-02-08T11:51:27.850Z,15.47
2019-02-08T11:52:37.922Z,15.44
2019-02-08T11:53:47.741Z,15.47
2019-02-08T11:54:57.802Z,15.44
2019-02-08T11:56:07.928Z,15.55
2019-02-08T11:57:17.974Z,15.55
2019-02-08T11:58:28.030Z,15.62
2019-02-08T11:59:38.130Z,15.63
2019-02-08T12:00:48.195Z,15.7
2019-02-08T12:01:58.244Z,15.77
2019-02-08T12:03:09.529Z,15.62
2019-02-08T12:04:19.067Z,15.62
2019-02-08T12:05:28.862Z,15.68
2019-02-08T12:06:38.659Z,15.65
2019-02-08T12:07:48.718Z,15.63
2019-02-08T12:08:58.786Z,15.71
2019-02-08T12:10:08.898Z,15.7
2019-02-08T12:11:19.010Z,15.67
2019-02-08T12:12:29.071Z,15.71
2019-02-08T12:13:39.121Z,15.73
2019-02-08T12:14:48.950Z,15.73
2019-02-08T12:15:59.007Z,15.71
2019-02-08T12:17:09.361Z,15.77
2019-02-08T12:18:21.140Z,15.77
2019-02-08T12:19:31.231Z,15.8
2019-02-08T12:20:41.314Z,15.93
2019-02-08T12:21:51.375Z,15.86
2019-02-08T12:23:01.486Z,15.86
2019-02-08T12:24:11.547Z,15.96
2019-02-08T12:25:21.603Z,16.06
2019-02-08T12:26:37.643Z,15.99
2019-02-08T12:27:47.753Z,16.07
2019-02-08T12:28:57.874Z,16.17
2019-02-08T12:30:07.678Z,16.21
2019-02-08T12:31:19.295Z,16.26
2019-02-08T12:32:29.102Z,16.25
2019-02-08T12:33:39.159Z,16.17
2019-02-08T12:34:50.952Z,16.17
2019-02-08T12:36:01.155Z,16.18
2019-02-08T12:37:11.225Z,16.22
2019-02-08T12:38:21.287Z,16.17
2019-02-08T12:39:31.116Z,16.16
2019-02-08T12:40:41.258Z,16.14
2019-02-08T12:41:51.334Z,16.11
2019-02-08T12:43:01.138Z,16.29
2019-02-08T12:44:10.715Z,16.21
2019-02-08T12:45:22.065Z,15.83
2019-02-08T12:46:32.147Z,15.56
2019-02-08T12:47:42.205Z,15.74
2019-02-08T12:48:52.282Z,15.86
2019-02-08T12:50:02.349Z,15.84
2019-02-08T12:51:12.147Z,15.98
2019-02-08T12:52:21.955Z,16.04
2019-02-08T12:53:32.042Z,15.98
2019-02-08T12:54:42.102Z,16.07
2019-02-08T12:55:52.182Z,15.96
2019-02-08T12:57:02.010Z,15.75
2019-02-08T12:58:12.060Z,15.86
2019-02-08T12:59:22.130Z,15.83
2019-02-08T13:00:32.212Z,15.58
2019-02-08T13:01:42.828Z,15.56
2019-02-08T13:02:52.620Z,15.49
2019-02-08T13:04:03.445Z,15.51
2019-02-08T13:05:13.615Z,15.47
2019-02-08T13:06:23.428Z,15.27
2019-02-08T13:07:33.228Z,15.34
2019-02-08T13:08:43.290Z,14.93
2019-02-08T13:09:53.420Z,15
2019-02-08T13:11:03.484Z,15.04
2019-02-08T13:12:14.357Z,15.1
2019-02-08T13:13:24.331Z,14.97
2019-02-08T13:14:34.392Z,15.01
2019-02-08T13:15:44.257Z,14.97
2019-02-08T13:16:54.302Z,15.05
2019-02-08T13:18:04.429Z,15
2019-02-08T13:19:14.517Z,14.97
2019-02-08T13:20:24.383Z,14.86
2019-02-08T13:21:34.272Z,14.89
2019-02-08T13:22:44.090Z,14.89
2019-02-08T13:23:54.546Z,14.94
2019-02-08T13:25:04.624Z,14.66
2019-02-08T13:26:14.715Z,14.64
2019-02-08T13:27:24.262Z,14.63
2019-02-08T13:28:34.321Z,14.69
2019-02-08T13:29:43.861Z,14.66
2019-02-08T13:30:53.671Z,14.69
2019-02-08T13:32:03.464Z,14.66
2019-02-08T13:33:13.254Z,14.53
2019-02-08T13:34:24.304Z,14.46
2019-02-08T13:35:34.375Z,14.15
2019-02-08T13:36:44.426Z,14.19
2019-02-08T13:37:54.517Z,14.21
2019-02-08T13:39:04.363Z,14.34
2019-02-08T13:40:14.422Z,14.09
2019-02-08T13:41:24.468Z,14.08
2019-02-08T13:42:34.524Z,14.08
2019-02-08T13:43:44.586Z,14.13
2019-02-08T13:44:54.690Z,14.16
2019-02-08T13:46:04.740Z,14.19
2019-02-08T13:47:15.860Z,14.23
2019-02-08T13:48:25.453Z,14.26
2019-02-08T13:49:35.517Z,14.26
2019-02-08T13:50:45.068Z,13.9
2019-02-08T13:51:55.135Z,13.83
2019-02-08T13:53:06.085Z,13.9
2019-02-08T13:54:16.135Z,13.93
2019-02-08T13:55:25.945Z,13.99
2019-02-08T13:56:35.744Z,14.02
2019-02-08T13:57:45.829Z,14.06
2019-02-08T13:58:55.665Z,14.05
2019-02-08T14:00:05.368Z,14.03
2019-02-08T14:01:15.452Z,14.01
2019-02-08T14:02:25.677Z,13.99
2019-02-08T14:03:35.729Z,13.86
2019-02-08T14:04:45.560Z,13.62
2019-02-08T14:05:55.625Z,13.54
2019-02-08T14:07:05.698Z,13.65
2019-02-08T14:08:15.754Z,13.66
2019-02-08T14:09:27.449Z,13.72
2019-02-08T14:10:37.534Z,13.65
2019-02-08T14:11:47.657Z,13.72
2019-02-08T14:12:57.718Z,13.69
2019-02-08T14:14:07.528Z,13.65
2019-02-08T14:15:17.567Z,13.69
2019-02-08T14:16:28.947Z,13.53
2019-02-08T14:17:38.311Z,13.28
2019-02-08T14:18:48.389Z,13.09
2019-02-08T14:19:58.463Z,13.11
2019-02-08T14:21:08.566Z,13.2
2019-02-08T14:22:18.641Z,13.31
2019-02-08T14:23:29.952Z,13.36
2019-02-08T14:24:40.030Z,13.31
2019-02-08T14:25:49.851Z,13.45
2019-02-08T14:26:59.649Z,13.37
2019-02-08T14:28:16.292Z,13.42
2019-02-08T14:29:26.355Z,13.35
2019-02-08T14:30:36.438Z,13.32
2019-02-08T14:31:49.843Z,13.28
2019-02-08T14:33:00.858Z,13.25
2019-02-08T14:34:10.898Z,13.19
2019-02-08T14:35:21.064Z,13.32
2019-02-08T14:36:31.403Z,13.2
2019-02-08T14:37:40.950Z,13.2
2019-02-08T14:38:51.007Z,13.17
2019-02-08T14:40:00.822Z,13.13
2019-02-08T14:41:10.650Z,13.11
2019-02-08T14:42:20.699Z,13.11
2019-02-08T14:43:30.763Z,13.09
2019-02-08T14:44:40.875Z,13.06
2019-02-08T14:45:50.967Z,13.02
2019-02-08T14:47:00.642Z,12.98
2019-02-08T14:48:10.700Z,12.96
2019-02-08T14:49:20.764Z,12.96
2019-02-08T14:50:30.854Z,12.81
2019-02-08T14:51:40.925Z,12.88
2019-02-08T14:52:50.792Z,12.77
2019-02-08T14:54:00.854Z,12.86
2019-02-08T14:55:11.370Z,12.78
2019-02-08T14:56:21.433Z,12.73
2019-02-08T14:57:31.272Z,12.56
2019-02-08T14:58:41.141Z,12.65
2019-02-08T14:59:50.674Z,12.63
2019-02-08T15:01:00.725Z,12.56
2019-02-08T15:02:10.856Z,12.58
2019-02-08T15:03:20.720Z,12.55
2019-02-08T15:04:30.848Z,12.45
2019-02-08T15:05:40.990Z,12.4
2019-02-08T15:06:51.108Z,12.43
2019-02-08T15:08:02.715Z,12.33
2019-02-08T15:09:12.812Z,12.26
2019-02-08T15:10:22.950Z,12.23
2019-02-08T15:11:32.822Z,12.23
2019-02-08T15:12:42.927Z,12.13
2019-02-08T15:13:53.012Z,12.13
2019-02-08T15:15:03.100Z,12.08
2019-02-08T15:16:13.217Z,11.91
2019-02-08T15:17:24.752Z,11.84
2019-02-08T15:18:34.608Z,11.82
2019-02-08T15:19:44.676Z,11.66
2019-02-08T15:20:54.521Z,11.67
2019-02-08T15:22:04.588Z,11.6
2019-02-08T15:23:14.397Z,11.68
2019-02-08T15:24:24.558Z,11.63
2019-02-08T15:25:34.657Z,11.57
2019-02-08T15:26:45.307Z,11.48
2019-02-08T15:27:55.480Z,11.42
2019-02-08T15:29:05.295Z,11.31
2019-02-08T15:30:15.360Z,11.33
2019-02-08T15:31:25.436Z,11.23
2019-02-08T15:32:37.146Z,11.18
2019-02-08T15:33:47.346Z,11.16
2019-02-08T15:34:57.418Z,11.09
2019-02-08T15:36:07.495Z,10.98
2019-02-08T15:37:17.583Z,11.05
2019-02-08T15:38:27.195Z,10.84
2019-02-08T15:39:37.423Z,10.73
2019-02-08T15:40:47.523Z,10.66
2019-02-08T15:41:57.344Z,10.66
2019-02-08T15:43:07.421Z,10.69
2019-02-08T15:44:17.264Z,10.61
2019-02-08T15:45:27.313Z,10.47
2019-02-08T15:46:37.254Z,10.38
2019-02-08T15:47:47.632Z,10.35
2019-02-08T15:48:58.235Z,10.35
2019-02-08T15:50:08.531Z,10.29
2019-02-08T15:51:18.592Z,10.13
2019-02-08T15:52:28.655Z,10.18